Time;durP1;ratioP1;P1;durP2;ratioP2;P2;SDS_P1;SDS_P2;PMS_P1;PMS_P2;Temp;Humidity;BMP_temperature;BMP_pressure;BME280_temperature;BME280_humidity;BME280_pressure;Samples;Min_cycle;Max_cycle;Signal;HPM_P1;HPM_P2
2023/03/15 00:00:47;;;;;;;;;;;;;;;5.74;89.49;99945.53;5089129;28;19934;-64
2023/03/15 00:03:15;;;;;;;;;;;;;;;5.65;89.08;99943.06;5088650;28;19946;-64
2023/03/15 00:05:41;;;;;;;;;;;;;;;5.61;89.13;99962.44;5079111;28;20418;-63
2023/03/15 00:08:07;;;;;;;;;;;;;;;5.62;89.80;99970.34;5079663;28;19967;-64
2023/03/15 00:10:32;;;;;;;;;;;;;;;5.54;89.75;99982.75;5087658;28;20328;-64
2023/03/15 00:12:57;;;;;;;;;;;;;;;5.51;90.03;99979.28;5090660;28;19930;-64
2023/03/15 00:15:22;;;;;;;;;;;;;;;5.43;89.41;99986.44;5090613;28;19937;-64
2023/03/15 00:17:48;;;;;;;;;;;;;;;5.42;90.34;99987.31;5090787;28;20335;-63
2023/03/15 00:20:18;;;;;;;;;;;;;;;5.48;91.09;100001.31;5091652;28;19931;-64
2023/03/15 00:22:44;;;;;;;;;;;;;;;5.51;90.30;99997.75;5091452;28;19933;-64
2023/03/15 00:25:09;;;;;;;;;;;;;;;5.45;90.59;100003.13;5091101;28;20320;-64
2023/03/15 00:27:34;;;;;;;;;;;;;;;5.36;90.25;100004.97;5088305;28;20341;-64
2023/03/15 00:30:00;;;;;;;;;;;;;;;5.20;90.58;100008.69;5071070;28;20296;-64
2023/03/15 00:32:25;;;;;;;;;;;;;;;5.07;91.05;100014.94;5081585;28;20295;-64
2023/03/15 00:34:53;;;;;;;;;;;;;;;5.10;91.44;100020.22;5091248;28;19924;-63
2023/03/15 00:37:19;;;;;;;;;;;;;;;5.07;92.02;100020.22;5090590;28;19934;-64
2023/03/15 00:39:44;;;;;;;;;;;;;;;5.01;92.19;100020.28;5091095;28;19934;-63
2023/03/15 00:42:10;;;;;;;;;;;;;;;4.96;92.78;100023.84;5088850;28;19960;-63
2023/03/15 00:44:35;;;;;;;;;;;;;;;4.98;92.87;100028.25;5090327;28;19947;-64
2023/03/15 00:47:01;;;;;;;;;;;;;;;4.96;93.71;100032.66;5089821;28;20488;-64
2023/03/15 00:49:26;;;;;;;;;;;;;;;4.97;93.80;100025.63;5090119;28;19955;-64
2023/03/15 00:51:53;;;;;;;;;;;;;;;4.98;93.96;100036.16;5090255;28;20704;-64
2023/03/15 00:54:18;;;;;;;;;;;;;;;4.95;93.89;100038.81;5090179;28;19956;-63
2023/03/15 00:56:43;;;;;;;;;;;;;;;4.86;93.92;100033.63;5089665;28;19934;-63
2023/03/15 00:59:09;;;;;;;;;;;;;;;4.90;94.21;100039.75;5090477;28;19969;-63
2023/03/15 01:01:34;;;;;;;;;;;;;;;4.86;94.29;100044.16;5089811;28;19933;-63
2023/03/15 01:04:00;;;;;;;;;;;;;;;4.86;94.42;100038.88;5086812;28;20045;-63
2023/03/15 01:06:26;;;;;;;;;;;;;;;4.82;94.38;100037.19;5082944;28;19996;-63
2023/03/15 01:08:54;;;;;;;;;;;;;;;4.81;94.78;100040.69;5089742;28;19946;-63
2023/03/15 01:11:23;;;;;;;;;;;;;;;4.80;94.63;100048.63;5085142;28;19939;-63
2023/03/15 01:13:48;;;;;;;;;;;;;;;4.80;94.81;100049.50;5082123;28;20282;-63
2023/03/15 01:16:14;;;;;;;;;;;;;;;4.78;95.04;100051.28;5088571;28;19941;-63
2023/03/15 01:18:40;;;;;;;;;;;;;;;4.73;95.04;100055.69;5089489;28;19933;-63
2023/03/15 01:21:09;;;;;;;;;;;;;;;4.74;94.99;100061.84;5088730;28;19942;-63
2023/03/15 01:23:34;;;;;;;;;;;;;;;4.73;94.82;100071.50;5089477;28;19958;-64
2023/03/15 01:26:00;;;;;;;;;;;;;;;4.74;95.10;100065.38;5090185;28;20290;-64
2023/03/15 01:28:26;;;;;;;;;;;;;;;4.69;95.00;100064.53;5090360;28;20044;-64
2023/03/15 01:30:51;;;;;;;;;;;;;;;4.63;95.06;100067.19;5087220;28;20410;-63
2023/03/15 01:33:17;;;;;;;;;;;;;;;4.53;95.11;100065.53;5089406;28;19939;-64
2023/03/15 01:35:42;;;;;;;;;;;;;;;4.46;94.84;100069.13;5090041;28;19927;-64
2023/03/15 01:38:08;;;;;;;;;;;;;;;4.41;95.69;100076.16;5089438;28;20303;-64
2023/03/15 01:40:33;;;;;;;;;;;;;;;4.42;96.21;100077.91;5090269;28;19927;-64
2023/03/15 01:43:01;;;;;;;;;;;;;;;4.37;96.18;100087.59;5071797;28;20415;-64
2023/03/15 01:45:45;;;;;;;;;;;;;;;4.35;97.05;100088.50;5088933;28;19939;-63
2023/03/15 01:48:10;;;;;;;;;;;;;;;4.35;97.32;100093.78;5089857;28;19920;-64
2023/03/15 01:50:35;;;;;;;;;;;;;;;4.36;97.26;100093.75;5088976;28;20071;-63
2023/03/15 01:53:01;;;;;;;;;;;;;;;4.35;97.35;100091.13;5090256;28;20041;-64
2023/03/15 01:55:26;;;;;;;;;;;;;;;4.27;97.24;100099.06;5086051;28;19979;-63
2023/03/15 01:57:56;;;;;;;;;;;;;;;4.27;97.35;100099.06;5071128;28;19912;-64
2023/03/15 02:00:22;;;;;;;;;;;;;;;4.22;97.00;100106.09;5083379;28;19932;-64
2023/03/15 02:02:52;;;;;;;;;;;;;;;4.18;97.36;100101.78;5086323;28;19957;-64
2023/03/15 02:05:25;;;;;;;;;;;;;;;4.10;97.21;100107.94;5088117;28;19948;-63
2023/03/15 02:07:53;;;;;;;;;;;;;;;4.07;97.32;100119.34;5089120;28;19930;-64
2023/03/15 02:10:29;;;;;;;;;;;;;;;4.06;97.43;100114.97;5088961;28;19930;-63
2023/03/15 02:12:54;;;;;;;;;;;;;;;4.01;98.17;100114.13;5088618;28;19982;-63
2023/03/15 02:15:20;;;;;;;;;;;;;;;3.99;98.66;100123.78;5089489;28;19982;-63
2023/03/15 02:17:46;;;;;;;;;;;;;;;4.05;98.68;100118.50;5089626;28;19985;-63
2023/03/15 02:20:17;;;;;;;;;;;;;;;3.96;98.34;100118.53;5089579;28;19924;-63
2023/03/15 02:22:56;;;;;;;;;;;;;;;3.96;98.38;100124.69;5088765;28;20018;-63
2023/03/15 02:25:28;;;;;;;;;;;;;;;3.90;98.50;100126.47;5090127;28;20316;-64
2023/03/15 02:27:53;;;;;;;;;;;;;;;3.91;98.65;100123.81;5093373;28;19927;-63
2023/03/15 02:30:19;;;;;;;;;;;;;;;3.88;98.39;100125.59;5087030;28;19920;-63
2023/03/15 02:32:44;;;;;;;;;;;;;;;3.89;98.29;100127.31;5073469;28;20549;-63
2023/03/15 02:35:09;;;;;;;;;;;;;;;3.89;98.61;100127.31;5079574;28;19959;-63
2023/03/15 02:37:34;;;;;;;;;;;;;;;3.88;98.57;100133.47;5093114;28;19952;-64
2023/03/15 02:40:00;;;;;;;;;;;;;;;3.90;98.67;100139.63;5093331;28;19931;-64
2023/03/15 02:42:25;;;;;;;;;;;;;;;3.83;98.20;100137.88;5085304;28;20013;-63
2023/03/15 02:44:52;;;;;;;;;;;;;;;3.82;98.19;100144.03;5069028;28;19954;-63
2023/03/15 02:47:21;;;;;;;;;;;;;;;3.80;98.60;100143.16;5093713;28;19937;-63
2023/03/15 02:49:49;;;;;;;;;;;;;;;3.80;98.43;100143.16;5092459;28;20420;-63
2023/03/15 02:52:15;;;;;;;;;;;;;;;3.77;97.89;100149.28;5093593;28;19943;-64
2023/03/15 02:54:42;;;;;;;;;;;;;;;3.78;97.77;100144.91;5093119;28;19964;-63
2023/03/15 02:57:08;;;;;;;;;;;;;;;3.75;97.83;100150.19;5091119;28;19943;-63
2023/03/15 02:59:33;;;;;;;;;;;;;;;3.75;97.45;100150.19;5075179;28;20426;-63
2023/03/15 03:01:58;;;;;;;;;;;;;;;3.78;97.92;100150.19;5073169;28;19972;-61
2023/03/15 03:04:24;;;;;;;;;;;;;;;3.73;97.32;100146.69;5072132;28;20376;-61
2023/03/15 03:06:49;;;;;;;;;;;;;;;3.63;96.94;100156.38;5092770;28;20014;-61
2023/03/15 03:09:14;;;;;;;;;;;;;;;3.57;96.81;100153.75;5093024;28;19922;-61
2023/03/15 03:11:39;;;;;;;;;;;;;;;3.51;97.34;100152.91;5088265;28;20054;-61
2023/03/15 03:14:05;;;;;;;;;;;;;;;3.48;97.34;100159.03;5091909;28;20467;-61
2023/03/15 03:16:31;;;;;;;;;;;;;;;3.49;97.24;100162.53;5092690;28;19936;-61
2023/03/15 03:18:56;;;;;;;;;;;;;;;3.47;97.29;100164.28;5091931;28;19961;-62
2023/03/15 03:21:21;;;;;;;;;;;;;;;3.46;97.95;100157.28;5090483;28;19937;-62
2023/03/15 03:23:46;;;;;;;;;;;;;;;3.45;97.92;100166.03;5091875;28;19969;-63
2023/03/15 03:26:15;;;;;;;;;;;;;;;3.44;98.19;100169.56;5087512;28;19938;-62
2023/03/15 03:28:41;;;;;;;;;;;;;;;3.36;98.56;100168.69;5091514;28;19931;-62
2023/03/15 03:31:14;;;;;;;;;;;;;;;3.31;99.41;100178.34;5090825;28;19916;-62
2023/03/15 03:33:39;;;;;;;;;;;;;;;3.30;98.78;100181.84;5090859;28;19933;-62
2023/03/15 03:36:05;;;;;;;;;;;;;;;3.19;100.00;100175.72;5092589;28;19933;-62
2023/03/15 03:38:30;;;;;;;;;;;;;;;3.14;100.00;100180.09;5090786;28;20465;-62
2023/03/15 03:40:55;;;;;;;;;;;;;;;3.18;100.00;100184.50;5090247;28;20010;-62
2023/03/15 03:43:21;;;;;;;;;;;;;;;3.27;100.00;100187.09;5072052;28;19944;-62
2023/03/15 03:45:46;;;;;;;;;;;;;;;3.18;99.89;100181.88;5077147;28;19916;-62
2023/03/15 03:48:11;;;;;;;;;;;;;;;3.11;100.00;100188.00;5092039;28;19920;-63
2023/03/15 03:50:36;;;;;;;;;;;;;;;3.13;100.00;100188.88;5092066;28;20108;-62
2023/03/15 03:53:02;;;;;;;;;;;;;;;3.10;100.00;100189.72;5091274;28;19943;-62
2023/03/15 03:55:27;;;;;;;;;;;;;;;3.09;100.00;100189.72;5088571;28;19931;-62
2023/03/15 03:57:52;;;;;;;;;;;;;;;3.05;100.00;100193.25;5077806;28;19949;-62
2023/03/15 04:00:18;;;;;;;;;;;;;;;3.02;100.00;100195.84;5079143;28;19999;-62
2023/03/15 04:02:43;;;;;;;;;;;;;;;3.02;100.00;100193.22;5071589;28;19983;-62
2023/03/15 04:05:10;;;;;;;;;;;;;;;3.01;100.00;100199.38;5071599;28;19951;-62
2023/03/15 04:07:35;;;;;;;;;;;;;;;2.97;100.00;100202.84;5080995;28;19948;-62
2023/03/15 04:10:01;;;;;;;;;;;;;;;2.87;100.00;100211.63;5091697;28;20034;-62
2023/03/15 04:12:26;;;;;;;;;;;;;;;2.82;100.00;100205.50;5080052;28;19965;-62
2023/03/15 04:14:52;;;;;;;;;;;;;;;2.73;100.00;100216.84;5091504;28;19976;-62
2023/03/15 04:17:17;;;;;;;;;;;;;;;2.72;100.00;100211.59;5091653;28;19930;-62
2023/03/15 04:19:45;;;;;;;;;;;;;;;2.76;100.00;100219.47;5091063;28;19943;-62
2023/03/15 04:22:14;;;;;;;;;;;;;;;2.79;100.00;100218.59;5079636;28;19953;-62
2023/03/15 04:24:39;;;;;;;;;;;;;;;2.78;100.00;100225.63;5075140;28;19952;-62
2023/03/15 04:27:05;;;;;;;;;;;;;;;2.80;100.00;100225.63;5091470;28;19925;-62
2023/03/15 04:29:30;;;;;;;;;;;;;;;2.86;100.00;100225.63;5091503;28;20292;-62
2023/03/15 04:32:00;;;;;;;;;;;;;;;2.89;100.00;100230.88;5091259;28;20041;-62
2023/03/15 04:34:27;;;;;;;;;;;;;;;2.85;100.00;100234.38;5090310;28;19934;-62
2023/03/15 04:36:53;;;;;;;;;;;;;;;2.84;100.00;100230.00;5091184;28;19925;-62
2023/03/15 04:39:19;;;;;;;;;;;;;;;2.84;100.00;100230.88;5090665;28;19933;-62
2023/03/15 04:41:44;;;;;;;;;;;;;;;2.82;100.00;100234.38;5082412;28;20356;-62
2023/03/15 04:44:09;;;;;;;;;;;;;;;2.75;100.00;100238.75;5071301;28;19946;-62
2023/03/15 04:46:35;;;;;;;;;;;;;;;2.68;100.00;100237.81;5089299;28;19923;-62
2023/03/15 04:49:02;;;;;;;;;;;;;;;2.70;100.00;100236.09;5071688;28;19916;-62
2023/03/15 04:51:27;;;;;;;;;;;;;;;2.66;100.00;100233.47;5089366;28;19933;-62
2023/03/15 04:53:52;;;;;;;;;;;;;;;2.67;100.00;100241.34;5089604;28;20005;-63
2023/03/15 04:56:17;;;;;;;;;;;;;;;2.70;100.00;100241.34;5076245;28;20392;-63
2023/03/15 04:58:43;;;;;;;;;;;;;;;2.67;100.00;100238.72;5082571;28;19919;-63
2023/03/15 05:01:09;;;;;;;;;;;;;;;2.70;100.00;100236.09;5090670;28;19924;-63
2023/03/15 05:03:34;;;;;;;;;;;;;;;2.70;100.00;100233.47;5089974;28;19951;-63
2023/03/15 05:06:06;;;;;;;;;;;;;;;2.68;100.00;100243.09;5090463;28;19920;-62
2023/03/15 05:08:32;;;;;;;;;;;;;;;2.67;100.00;100238.72;5090695;28;19927;-63
2023/03/15 05:10:57;;;;;;;;;;;;;;;2.66;100.00;100234.34;5088475;28;19943;-62
2023/03/15 05:13:22;;;;;;;;;;;;;;;2.63;100.00;100229.09;5070861;28;20041;-63
2023/03/15 05:15:47;;;;;;;;;;;;;;;2.59;100.00;100236.94;5075853;28;19943;-63
2023/03/15 05:18:13;;;;;;;;;;;;;;;2.52;100.00;100235.19;5089728;28;19943;-63
2023/03/15 05:20:38;;;;;;;;;;;;;;;2.52;100.00;100240.44;5079492;28;19931;-62
2023/03/15 05:23:03;;;;;;;;;;;;;;;2.52;100.00;100238.66;5075626;28;19926;-63
2023/03/15 05:25:29;;;;;;;;;;;;;;;2.47;100.00;100237.78;5089684;28;19962;-63
2023/03/15 05:27:54;;;;;;;;;;;;;;;2.50;100.00;100237.78;5090131;28;19912;-62
2023/03/15 05:30:20;;;;;;;;;;;;;;;2.49;100.00;100236.03;5090114;28;19928;-62
2023/03/15 05:32:45;;;;;;;;;;;;;;;2.50;100.00;100236.94;5089352;28;19939;-63
2023/03/15 05:35:11;;;;;;;;;;;;;;;2.47;100.00;100236.94;5080821;28;19945;-62
2023/03/15 05:37:37;;;;;;;;;;;;;;;2.44;100.00;100236.88;5069905;28;20294;-62
2023/03/15 05:40:06;;;;;;;;;;;;;;;2.46;100.00;100236.03;5082686;28;19922;-63
2023/03/15 05:42:32;;;;;;;;;;;;;;;2.52;100.00;100246.53;5090220;28;19932;-62
2023/03/15 05:44:57;;;;;;;;;;;;;;;2.58;100.00;100257.09;5087656;28;19947;-62
2023/03/15 05:47:23;;;;;;;;;;;;;;;2.58;100.00;100254.47;5087453;28;19950;-63
2023/03/15 05:49:48;;;;;;;;;;;;;;;2.53;100.00;100250.94;5089708;28;19929;-62
2023/03/15 05:52:14;;;;;;;;;;;;;;;2.59;100.00;100248.31;5081342;28;20390;-62
2023/03/15 05:54:39;;;;;;;;;;;;;;;2.59;100.00;100252.69;5069610;28;19958;-63
2023/03/15 05:57:05;;;;;;;;;;;;;;;2.64;100.00;100257.09;5051918;28;20371;-62
2023/03/15 05:59:30;;;;;;;;;;;;;;;2.65;100.00;100248.34;5070250;28;20011;-61
2023/03/15 06:01:55;;;;;;;;;;;;;;;2.73;100.00;100251.00;5086893;28;19971;-61
2023/03/15 06:04:21;;;;;;;;;;;;;;;2.80;100.00;100251.88;5069974;28;19983;-61
2023/03/15 06:06:46;;;;;;;;;;;;;;;2.89;100.00;100259.75;5088388;28;19936;-62
2023/03/15 06:09:12;;;;;;;;;;;;;;;3.07;100.00;100257.16;5089371;28;20046;-62
2023/03/15 06:11:37;;;;;;;;;;;;;;;3.65;100.00;100257.19;5088793;28;19934;-62
2023/03/15 06:14:03;;;;;;;;;;;;;;;4.74;100.00;100257.69;5087977;28;19934;-62
2023/03/15 06:16:28;;;;;;;;;;;;;;;5.86;99.61;100255.09;5078719;28;20300;-62
2023/03/15 06:18:53;;;;;;;;;;;;;;;6.76;93.16;100244.31;5086317;28;19923;-62
2023/03/15 06:21:18;;;;;;;;;;;;;;;7.48;83.64;100249.38;5083604;28;19932;-62
2023/03/15 06:23:44;;;;;;;;;;;;;;;8.37;75.77;100241.63;5079562;28;20497;-62
2023/03/15 06:26:09;;;;;;;;;;;;;;;9.35;70.18;100258.88;5080438;28;19978;-62
2023/03/15 06:28:34;;;;;;;;;;;;;;;10.28;65.33;100259.09;5082556;28;19932;-62
2023/03/15 06:31:07;;;;;;;;;;;;;;;10.90;60.60;100259.97;5079001;28;19958;-62
2023/03/15 06:33:32;;;;;;;;;;;;;;;11.38;57.14;100261.09;5077464;28;19927;-62
2023/03/15 06:35:57;;;;;;;;;;;;;;;11.69;54.01;100271.69;5083582;28;19955;-62
2023/03/15 06:38:23;;;;;;;;;;;;;;;12.39;51.11;100275.47;5079752;28;19954;-62
2023/03/15 06:40:48;;;;;;;;;;;;;;;13.10;49.41;100276.34;5078832;28;19935;-62
2023/03/15 06:43:18;;;;;;;;;;;;;;;13.28;48.95;100280.13;5068926;28;19936;-62
2023/03/15 06:45:44;;;;;;;;;;;;;;;13.47;47.84;100281.13;5074125;28;20003;-61
2023/03/15 06:48:09;;;;;;;;;;;;;;;13.68;46.78;100282.91;5080864;28;20384;-61
2023/03/15 06:50:34;;;;;;;;;;;;;;;14.30;46.07;100282.03;5074601;28;19930;-61
2023/03/15 06:53:00;;;;;;;;;;;;;;;14.99;44.64;100293.22;5071665;28;19965;-61
2023/03/15 06:55:25;;;;;;;;;;;;;;;15.60;43.18;100295.63;5074521;28;20023;-62
2023/03/15 06:57:50;;;;;;;;;;;;;;;15.64;43.15;100299.03;5084760;28;19957;-62
2023/03/15 07:00:16;;;;;;;;;;;;;;;15.02;43.17;100301.13;5080474;28;19949;-61
2023/03/15 07:02:41;;;;;;;;;;;;;;;14.93;43.72;100302.41;5076302;28;19931;-62
2023/03/15 07:05:07;;;;;;;;;;;;;;;14.62;43.42;100299.38;5075164;28;19932;-62
2023/03/15 07:07:32;;;;;;;;;;;;;;;13.92;45.15;100306.00;5082490;28;20012;-62
2023/03/15 07:09:57;;;;;;;;;;;;;;;14.43;45.78;100306.47;5085015;28;19930;-62
2023/03/15 07:12:22;;;;;;;;;;;;;;;15.00;43.34;100306.53;5083760;28;19927;-62
2023/03/15 07:14:48;;;;;;;;;;;;;;;14.47;43.26;100306.28;5089914;28;19916;-62
2023/03/15 07:17:14;;;;;;;;;;;;;;;13.75;45.07;100311.16;5078853;28;19961;-61
2023/03/15 07:19:39;;;;;;;;;;;;;;;13.01;47.01;100309.59;5091312;28;20276;-62
2023/03/15 07:22:04;;;;;;;;;;;;;;;12.41;46.93;100311.81;5090590;28;19926;-62
2023/03/15 07:24:30;;;;;;;;;;;;;;;11.13;49.82;100317.84;5090086;28;20373;-62
2023/03/15 07:26:55;;;;;;;;;;;;;;;10.32;53.02;100311.28;5086774;28;19942;-62
2023/03/15 07:29:22;;;;;;;;;;;;;;;10.09;54.54;100313.69;5084329;28;20287;-62
2023/03/15 07:31:47;;;;;;;;;;;;;;;10.31;54.70;100312.19;5085615;28;20314;-61
2023/03/15 07:34:12;;;;;;;;;;;;;;;10.46;53.64;100317.09;5074101;28;19933;-61
2023/03/15 07:36:38;;;;;;;;;;;;;;;10.85;53.78;100319.56;5073848;28;20024;-62
2023/03/15 07:39:03;;;;;;;;;;;;;;;11.38;51.74;100324.16;5083830;28;19962;-61
2023/03/15 07:41:29;;;;;;;;;;;;;;;11.22;52.45;100325.56;5083710;28;19920;-60
2023/03/15 07:43:54;;;;;;;;;;;;;;;12.00;51.16;100325.72;5075627;28;19986;-61
2023/03/15 07:46:19;;;;;;;;;;;;;;;12.09;50.63;100325.41;5076706;28;19930;-60
2023/03/15 07:48:45;;;;;;;;;;;;;;;11.21;50.89;100322.00;5090418;28;20297;-61
2023/03/15 07:51:10;;;;;;;;;;;;;;;11.05;53.71;100327.84;5077712;28;19935;-61
2023/03/15 07:53:36;;;;;;;;;;;;;;;11.22;53.31;100322.91;5077658;28;19955;-61
2023/03/15 07:56:01;;;;;;;;;;;;;;;10.88;54.35;100330.09;5089329;28;19928;-61
2023/03/15 07:58:26;;;;;;;;;;;;;;;10.06;57.44;100335.00;5072812;28;19931;-61
2023/03/15 08:00:55;;;;;;;;;;;;;;;10.43;58.99;100321.63;5082071;28;20703;-61
2023/03/15 08:03:21;;;;;;;;;;;;;;;11.54;54.06;100320.09;5080494;28;20037;-61
2023/03/15 08:05:46;;;;;;;;;;;;;;;12.04;52.12;100322.03;5088723;28;20049;-60
2023/03/15 08:08:11;;;;;;;;;;;;;;;12.66;52.14;100327.81;5069873;28;19935;-61
2023/03/15 08:10:37;;;;;;;;;;;;;;;13.03;50.11;100323.78;5083608;28;19935;-61
2023/03/15 08:13:02;;;;;;;;;;;;;;;12.82;49.52;100319.22;5071011;28;19931;-61
2023/03/15 08:15:27;;;;;;;;;;;;;;;11.69;51.74;100324.97;5088627;28;20418;-60
2023/03/15 08:17:53;;;;;;;;;;;;;;;12.04;50.79;100322.03;5090850;28;19921;-61
2023/03/15 08:20:18;;;;;;;;;;;;;;;11.40;51.37;100322.34;5088950;28;19995;-60
2023/03/15 08:22:45;;;;;;;;;;;;;;;11.81;52.76;100320.09;5071521;28;19979;-61
2023/03/15 08:25:11;;;;;;;;;;;;;;;12.42;51.88;100318.03;5069970;28;19957;-61
2023/03/15 08:27:37;;;;;;;;;;;;;;;12.94;50.56;100329.44;5090407;28;20325;-61
2023/03/15 08:30:04;;;;;;;;;;;;;;;12.99;47.91;100327.47;5091034;28;20036;-60
2023/03/15 08:32:30;;;;;;;;;;;;;;;12.96;49.16;100332.91;5090809;28;19916;-61
2023/03/15 08:34:55;;;;;;;;;;;;;;;13.05;49.43;100321.94;5087606;28;19941;-61
2023/03/15 08:37:21;;;;;;;;;;;;;;;13.50;48.13;100318.41;5090464;28;19942;-61
2023/03/15 08:39:46;;;;;;;;;;;;;;;13.62;48.65;100323.28;5090904;28;20002;-60
2023/03/15 08:42:11;;;;;;;;;;;;;;;13.18;47.82;100322.31;5090972;28;19959;-61
2023/03/15 08:44:36;;;;;;;;;;;;;;;13.64;49.36;100334.78;5090055;28;20336;-61
2023/03/15 08:47:02;;;;;;;;;;;;;;;14.00;48.05;100319.91;5090651;28;20474;-61
2023/03/15 08:49:27;;;;;;;;;;;;;;;13.68;47.30;100333.69;5089433;28;19920;-61
2023/03/15 08:51:52;;;;;;;;;;;;;;;13.69;46.17;100332.78;5087213;28;20032;-61
2023/03/15 08:54:18;;;;;;;;;;;;;;;13.48;47.79;100336.28;5090170;28;19966;-60
2023/03/15 08:56:43;;;;;;;;;;;;;;;13.04;48.68;100348.69;5089616;28;19946;-61
2023/03/15 08:59:09;;;;;;;;;;;;;;;13.15;47.92;100350.03;5090602;28;20019;-61
2023/03/15 09:01:34;;;;;;;;;;;;;;;13.07;48.69;100348.56;5088995;28;19943;-61
2023/03/15 09:04:00;;;;;;;;;;;;;;;12.92;49.20;100346.44;5090969;28;19919;-60
2023/03/15 09:06:25;;;;;;;;;;;;;;;13.23;48.96;100346.22;5073191;28;19959;-61
2023/03/15 09:08:52;;;;;;;;;;;;;;;13.34;48.64;100354.69;5090923;28;20666;-60
2023/03/15 09:11:18;;;;;;;;;;;;;;;13.83;48.39;100347.34;5086877;28;20470;-61
2023/03/15 09:13:43;;;;;;;;;;;;;;;13.96;48.16;100350.38;5083716;28;19934;-61
2023/03/15 09:16:08;;;;;;;;;;;;;;;13.71;47.86;100354.97;5090798;28;19969;-61
2023/03/15 09:18:34;;;;;;;;;;;;;;;13.73;47.59;100353.97;5089988;28;19920;-61
2023/03/15 09:21:00;;;;;;;;;;;;;;;13.18;47.50;100357.94;5089898;28;20451;-60
2023/03/15 09:23:25;;;;;;;;;;;;;;;13.26;48.33;100357.66;5089736;28;19957;-61
2023/03/15 09:25:50;;;;;;;;;;;;;;;13.75;47.72;100361.94;5088766;28;19945;-61
2023/03/15 09:28:15;;;;;;;;;;;;;;;13.85;47.12;100366.00;5089581;28;20006;-61
2023/03/15 09:30:41;;;;;;;;;;;;;;;14.32;47.44;100362.25;5088659;28;19980;-60
2023/03/15 09:33:07;;;;;;;;;;;;;;;14.39;46.52;100361.06;5090075;28;19916;-60
2023/03/15 09:35:32;;;;;;;;;;;;;;;14.36;45.62;100366.56;5089074;28;19930;-60
2023/03/15 09:37:58;;;;;;;;;;;;;;;14.82;46.74;100360.06;5078732;28;20569;-60
2023/03/15 09:40:29;;;;;;;;;;;;;;;14.46;44.31;100362.56;5070225;28;19934;-60
2023/03/15 09:43:07;;;;;;;;;;;;;;;13.74;45.78;100368.22;5084185;28;19920;-60
2023/03/15 09:45:42;;;;;;;;;;;;;;;13.20;46.88;100369.44;5090174;28;19950;-60
2023/03/15 09:48:16;;;;;;;;;;;;;;;12.15;47.51;100367.88;5078458;28;19963;-60
2023/03/15 09:51:03;;;;;;;;;;;;;;;11.81;49.11;100367.22;5089446;28;19956;-60
2023/03/15 09:53:44;;;;;;;;;;;;;;;11.94;50.02;100373.91;5089854;28;19924;-61
2023/03/15 09:56:21;;;;;;;;;;;;;;;11.94;50.43;100373.91;5088884;28;20219;-60
2023/03/15 09:58:48;;;;;;;;;;;;;;;12.13;50.29;100369.69;5090223;28;20021;-60
2023/03/15 10:01:16;;;;;;;;;;;;;;;12.27;51.45;100378.13;5088837;28;19948;-60
2023/03/15 10:03:48;;;;;;;;;;;;;;;12.15;49.42;100380.31;5086547;28;19924;-60
2023/03/15 10:06:25;;;;;;;;;;;;;;;12.48;51.08;100372.06;5080962;28;19920;-60
2023/03/15 10:08:53;;;;;;;;;;;;;;;13.13;50.34;100367.91;5069807;28;20387;-60
2023/03/15 10:11:41;;;;;;;;;;;;;;;13.16;48.29;100370.47;5087028;28;19930;-60
2023/03/15 10:14:18;;;;;;;;;;;;;;;13.16;46.82;100373.13;5088398;28;19955;-61
2023/03/15 10:16:47;;;;;;;;;;;;;;;12.88;46.91;100366.19;5088119;28;19946;-60
2023/03/15 10:19:13;;;;;;;;;;;;;;;12.92;44.70;100363.34;5089142;28;19949;-61
2023/03/15 10:21:40;;;;;;;;;;;;;;;13.40;43.10;100375.81;5087852;28;19923;-60
2023/03/15 10:24:13;;;;;;;;;;;;;;;13.82;42.79;100366.97;5068687;28;19955;-60
2023/03/15 10:26:38;;;;;;;;;;;;;;;14.14;44.25;100354.97;5071625;28;20053;-60
2023/03/15 10:29:10;;;;;;;;;;;;;;;13.81;41.43;100367.03;5084083;28;20054;-61
2023/03/15 10:31:38;;;;;;;;;;;;;;;13.89;40.87;100370.25;5086340;28;19938;-60
2023/03/15 10:34:03;;;;;;;;;;;;;;;14.61;42.12;100361.91;5070552;28;20072;-61
2023/03/15 10:36:28;;;;;;;;;;;;;;;15.57;41.02;100357.47;5088332;28;20075;-61
2023/03/15 10:38:54;;;;;;;;;;;;;;;15.65;38.18;100366.00;5088802;28;19930;-61
2023/03/15 10:41:39;;;;;;;;;;;;;;;16.22;39.74;100365.00;5089109;28;19930;-61
2023/03/15 10:44:11;;;;;;;;;;;;;;;16.28;34.75;100361.97;5087998;28;20329;-61
2023/03/15 10:46:37;;;;;;;;;;;;;;;16.18;38.55;100370.56;5089769;28;19965;-60
2023/03/15 10:49:10;;;;;;;;;;;;;;;16.42;38.52;100363.97;5093069;28;19920;-61
2023/03/15 10:51:40;;;;;;;;;;;;;;;16.06;38.14;100360.47;5093536;28;19920;-61
2023/03/15 10:54:11;;;;;;;;;;;;;;;15.94;39.64;100361.94;5075614;28;19927;-61
2023/03/15 10:56:43;;;;;;;;;;;;;;;15.91;39.42;100358.53;5094168;28;19920;-60
2023/03/15 10:59:23;;;;;;;;;;;;;;;16.15;37.26;100349.25;5082851;28;19932;-61
2023/03/15 11:01:50;;;;;;;;;;;;;;;16.26;39.05;100345.06;5093018;28;19926;-61
2023/03/15 11:04:18;;;;;;;;;;;;;;;17.16;36.53;100347.50;5082245;28;19920;-61
2023/03/15 11:06:45;;;;;;;;;;;;;;;16.35;36.70;100346.44;5091900;28;20627;-61
2023/03/15 11:09:13;;;;;;;;;;;;;;;16.59;37.84;100342.53;5092499;28;20026;-61
2023/03/15 11:12:07;;;;;;;;;;;;;;;16.82;37.45;100343.06;5089101;28;19912;-60
2023/03/15 11:14:33;;;;;;;;;;;;;;;16.28;37.80;100345.88;5074597;28;20403;-61
2023/03/15 11:16:59;;;;;;;;;;;;;;;16.47;40.18;100346.72;5092347;28;20000;-60
2023/03/15 11:19:30;;;;;;;;;;;;;;;15.71;38.82;100343.41;5090744;28;19927;-61
2023/03/15 11:21:57;;;;;;;;;;;;;;;15.68;39.77;100339.03;5092589;28;20027;-61
2023/03/15 11:24:27;;;;;;;;;;;;;;;15.98;39.60;100333.97;5092379;28;19920;-60
2023/03/15 11:26:54;;;;;;;;;;;;;;;15.94;38.83;100331.53;5093177;28;19920;-61
2023/03/15 11:29:22;;;;;;;;;;;;;;;15.42;41.02;100339.41;5093190;28;20287;-61
2023/03/15 11:31:48;;;;;;;;;;;;;;;15.41;39.63;100336.81;5091955;28;19999;-60
2023/03/15 11:34:24;;;;;;;;;;;;;;;15.36;41.05;100331.63;5093678;28;19949;-60
2023/03/15 11:36:52;;;;;;;;;;;;;;;14.92;40.15;100335.50;5087663;28;19984;-61
2023/03/15 11:39:25;;;;;;;;;;;;;;;15.03;41.95;100321.59;5088574;28;19927;-60
2023/03/15 11:41:58;;;;;;;;;;;;;;;15.98;40.90;100327.78;5081471;28;19935;-60
2023/03/15 11:44:26;;;;;;;;;;;;;;;16.77;37.14;100322.78;5090417;28;19950;-60
2023/03/15 11:46:56;;;;;;;;;;;;;;;16.89;37.45;100324.78;5073347;28;19924;-60
2023/03/15 11:49:40;;;;;;;;;;;;;;;17.26;37.30;100324.56;5074112;28;19945;-60
2023/03/15 11:52:05;;;;;;;;;;;;;;;17.03;36.97;100330.31;5072450;28;19929;-60
2023/03/15 11:54:31;;;;;;;;;;;;;;;15.99;38.26;100335.75;5072234;28;20287;-60
2023/03/15 11:57:02;;;;;;;;;;;;;;;15.36;40.55;100337.00;5086826;28;19967;-60
2023/03/15 11:59:28;;;;;;;;;;;;;;;14.62;42.20;100341.31;5091113;28;20309;-60
2023/03/15 12:01:58;;;;;;;;;;;;;;;13.94;43.40;100337.06;5091668;28;20442;-60
2023/03/15 12:04:24;;;;;;;;;;;;;;;13.53;42.54;100350.34;5088930;28;19951;-60
2023/03/15 12:06:53;;;;;;;;;;;;;;;13.03;45.19;100350.47;5078948;28;20341;-59
2023/03/15 12:09:30;;;;;;;;;;;;;;;12.53;45.31;100351.41;5092019;28;19915;-60
2023/03/15 12:11:56;;;;;;;;;;;;;;;12.30;47.50;100356.69;5083935;28;19963;-59
2023/03/15 12:14:27;;;;;;;;;;;;;;;11.96;49.75;100368.53;5090558;28;19938;-60
2023/03/15 12:16:56;;;;;;;;;;;;;;;11.31;56.91;100375.84;5091205;28;19936;-59
2023/03/15 12:19:24;;;;;;;;;;;;;;;10.83;61.88;100385.25;5092404;28;20256;-59
2023/03/15 12:21:50;;;;;;;;;;;;;;;10.49;65.61;100378.19;5084706;28;19931;-59
2023/03/15 12:24:35;;;;;;;;;;;;;;;10.27;68.52;100381.44;5092421;28;19975;-60
2023/03/15 12:27:17;;;;;;;;;;;;;;;10.39;72.39;100368.69;5088474;28;19989;-60
2023/03/15 12:29:47;;;;;;;;;;;;;;;10.81;74.68;100358.69;5091396;28;19916;-60
2023/03/15 12:32:19;;;;;;;;;;;;;;;12.47;76.20;100366.78;5090011;28;19920;-60
2023/03/15 12:34:49;;;;;;;;;;;;;;;14.04;69.07;100354.47;5090782;28;20013;-60
2023/03/15 12:37:19;;;;;;;;;;;;;;;14.84;59.53;100363.56;5089344;28;19934;-60
2023/03/15 12:39:58;;;;;;;;;;;;;;;15.56;55.16;100345.00;5090872;28;19927;-60